Terminal Aerodrome Forecast
Issued by NWS Cleveland, OH

Home | Current Version | Previous Version | Text Only | Print | Product List | Glossary Off
Versions: 1 2 3 4 5 6 7 8 9 10 11 12 13 14 15 16 17 18 19 20 21

000
FTUS41 KCLE 232337
TAFERI
TAF
KERI 232337Z 2400/2424 05012G20KT P6SM OVC008
     FM240900 05012KT P6SM SCT008 OVC015
     FM241300 04014G22KT P6SM FEW015 SCT025
     FM242200 03012KT P6SM SKC=

USA.gov is the U.S. government's official web portal to all federal, state and local government web resources and services.